Time,TemperatureF,DewpointF,PressureIn,WindDirection,WindDirectionDegrees,WindSpeedMPH,WindSpeedGustMPH,Humidity,HourlyPrecipIn,Conditions,Clouds,dailyrainin,SoftwareType,DateUTC
2013-06-06 00:01:00,60.8,59.7,29.93,North,355,4.0,5.0,96,0.00,,,0.00,WeatherCatV1.15B25,2013-06-06 05:01:00,
2013-06-06 00:06:00,60.7,59.3,29.93,NNW,346,4.0,5.0,95,0.00,,,0.00,WeatherCatV1.15B25,2013-06-06 05:06:00,
2013-06-06 00:11:00,60.6,59.2,29.93,North,350,2.0,7.0,95,0.00,,,0.00,WeatherCatV1.15B25,2013-06-06 05:11:00,
2013-06-06 00:16:00,60.5,59.1,29.93,NNE,18,3.0,4.0,95,0.00,,,0.00,WeatherCatV1.15B25,2013-06-06 05:16:00,
2013-06-06 00:21:00,60.4,59.0,29.93,NNW,330,4.0,6.0,95,0.00,,,0.00,WeatherCatV1.15B25,2013-06-06 05:21:00,
2013-06-06 00:26:00,60.4,59.0,29.93,NNW,338,4.0,4.0,95,0.00,,,0.00,WeatherCatV1.15B25,2013-06-06 05:26:00,
2013-06-06 00:31:00,60.3,58.9,29.93,NNE,18,0.0,1.0,95,0.00,,,0.00,WeatherCatV1.15B25,2013-06-06 05:31:00,
2013-06-06 00:36:00,60.3,58.9,29.93,North,0,0.0,0.0,95,0.00,,,0.00,WeatherCatV1.15B25,2013-06-06 05:36:00,
2013-06-06 00:41:00,60.2,58.8,29.93,North,355,0.0,2.0,95,0.00,,,0.00,WeatherCatV1.15B25,2013-06-06 05:41:00,
2013-06-06 00:46:00,60.2,58.8,29.92,North,355,0.0,0.0,95,0.00,,,0.00,WeatherCatV1.15B25,2013-06-06 05:46:00,
2013-06-06 00:51:00,60.2,58.8,29.92,NNE,27,2.0,5.0,95,0.00,,,0.00,WeatherCatV1.15B25,2013-06-06 05:51:00,
2013-06-06 00:56:00,60.1,58.7,29.92,North,355,1.0,1.0,95,0.00,,,0.00,WeatherCatV1.15B25,2013-06-06 05:56:00,
2013-06-06 01:01:00,60.0,58.6,29.92,NE,55,1.0,2.0,95,0.00,,,0.00,WeatherCatV1.15B25,2013-06-06 06:01:00,
2013-06-06 01:06:00,60.0,58.6,29.92,NNW,335,1.0,4.0,95,0.00,,,0.00,WeatherCatV1.15B25,2013-06-06 06:06:00,
2013-06-06 01:11:00,59.9,58.5,29.92,NE,49,0.0,4.0,95,0.00,,,0.00,WeatherCatV1.15B25,2013-06-06 06:11:00,
2013-06-06 01:16:00,59.9,58.5,29.91,North,5,0.0,2.0,95,0.00,,,0.00,WeatherCatV1.15B25,2013-06-06 06:16:00,
2013-06-06 01:21:00,59.8,58.7,29.91,ENE,61,2.0,3.0,96,0.00,,,0.00,WeatherCatV1.15B25,2013-06-06 06:21:00,
2013-06-06 01:26:00,59.8,58.7,29.91,NE,53,0.0,1.0,96,0.00,,,0.00,WeatherCatV1.15B25,2013-06-06 06:26:00,
2013-06-06 01:31:00,59.8,58.7,29.91,ENE,63,0.0,2.0,96,0.00,,,0.00,WeatherCatV1.15B25,2013-06-06 06:31:00,
2013-06-06 01:36:00,59.8,58.7,29.91,NNE,33,0.0,2.0,96,0.00,,,0.00,WeatherCatV1.15B25,2013-06-06 06:36:00,
2013-06-06 01:41:00,59.7,58.6,29.91,NW,324,0.0,2.0,96,0.00,,,0.00,WeatherCatV1.15B25,2013-06-06 06:41:00,
2013-06-06 01:46:00,59.7,58.6,29.90,East,86,0.0,1.0,96,0.00,,,0.00,WeatherCatV1.15B25,2013-06-06 06:46:00,
2013-06-06 01:51:00,59.6,58.5,29.90,ENE,69,0.0,2.0,96,0.00,,,0.00,WeatherCatV1.15B25,2013-06-06 06:51:00,
2013-06-06 01:56:00,59.6,58.5,29.90,NNE,25,0.0,2.0,96,0.00,,,0.00,WeatherCatV1.15B25,2013-06-06 06:56:00,
2013-06-06 02:01:00,59.6,58.5,29.90,ENE,78,1.0,1.0,96,0.00,,,0.00,WeatherCatV1.15B25,2013-06-06 07:01:00,
2013-06-06 02:06:00,59.6,58.5,29.90,NNW,329,0.0,0.0,96,0.00,,,0.00,WeatherCatV1.15B25,2013-06-06 07:06:00,
2013-06-06 02:11:00,59.6,58.5,29.90,ENE,59,0.0,0.0,96,0.00,,,0.00,WeatherCatV1.15B25,2013-06-06 07:11:00,
2013-06-06 02:16:00,59.5,58.4,29.90,North,0,0.0,2.0,96,0.00,,,0.00,WeatherCatV1.15B25,2013-06-06 07:16:00,
2013-06-06 02:21:00,59.5,58.4,29.90,North,0,0.0,0.0,96,0.00,,,0.00,WeatherCatV1.15B25,2013-06-06 07:21:00,
2013-06-06 02:26:00,59.6,58.5,29.90,NNW,331,3.0,3.0,96,0.00,,,0.00,WeatherCatV1.15B25,2013-06-06 07:26:00,
2013-06-06 02:31:00,59.5,58.4,29.91,NE,35,1.0,1.0,96,0.00,,,0.00,WeatherCatV1.15B25,2013-06-06 07:31:00,
2013-06-06 02:36:00,59.5,58.4,29.91,North,355,4.0,4.0,96,0.00,,,0.00,WeatherCatV1.15B25,2013-06-06 07:36:00,
2013-06-06 02:41:00,59.5,58.4,29.91,NNW,342,0.0,4.0,96,0.00,,,0.00,WeatherCatV1.15B25,2013-06-06 07:41:00,
2013-06-06 02:46:00,59.4,58.3,29.91,North,355,3.0,4.0,96,0.00,,,0.00,WeatherCatV1.15B25,2013-06-06 07:46:00,
2013-06-06 02:51:00,59.4,58.3,29.91,NNW,335,3.0,4.0,96,0.00,,,0.00,WeatherCatV1.15B25,2013-06-06 07:51:00,
2013-06-06 02:56:00,59.3,58.2,29.91,North,355,2.0,3.0,96,0.00,,,0.00,WeatherCatV1.15B25,2013-06-06 07:56:00,
2013-06-06 03:01:00,59.2,58.1,29.90,NNW,341,3.0,4.0,96,0.00,,,0.00,WeatherCatV1.15B25,2013-06-06 08:01:00,
2013-06-06 03:06:00,59.1,58.0,29.90,NNW,338,0.0,3.0,96,0.00,,,0.00,WeatherCatV1.15B25,2013-06-06 08:06:00,
2013-06-06 03:11:00,59.0,57.9,29.90,North,350,0.0,0.0,96,0.00,,,0.00,WeatherCatV1.15B25,2013-06-06 08:11:00,
2013-06-06 03:16:00,58.9,57.8,29.89,North,350,0.0,0.0,96,0.00,,,0.00,WeatherCatV1.15B25,2013-06-06 08:16:00,
2013-06-06 03:21:00,58.8,57.7,29.89,NNW,344,4.0,4.0,96,0.00,,,0.00,WeatherCatV1.15B25,2013-06-06 08:21:00,
2013-06-06 03:27:00,58.6,57.5,29.89,NW,321,1.0,4.0,96,0.00,,,0.00,WeatherCatV1.15B25,2013-06-06 08:27:00,
2013-06-06 03:32:00,58.5,57.4,29.89,NNW,344,0.0,3.0,96,0.00,,,0.00,WeatherCatV1.15B25,2013-06-06 08:32:00,
2013-06-06 03:37:00,58.3,57.2,29.89,NNW,344,0.0,1.0,96,0.00,,,0.00,WeatherCatV1.15B25,2013-06-06 08:37:00,
2013-06-06 03:42:00,58.3,57.2,29.90,NW,319,1.0,2.0,96,0.00,,,0.00,WeatherCatV1.15B25,2013-06-06 08:42:00,
2013-06-06 03:47:00,58.2,57.1,29.90,North,0,2.0,4.0,96,0.00,,,0.00,WeatherCatV1.15B25,2013-06-06 08:47:00,
2013-06-06 03:52:00,58.1,57.0,29.90,NW,323,0.0,2.0,96,0.00,,,0.00,WeatherCatV1.15B25,2013-06-06 08:52:00,
2013-06-06 03:57:00,58.0,57.2,29.90,NW,323,0.0,1.0,97,0.00,,,0.00,WeatherCatV1.15B25,2013-06-06 08:57:00,
2013-06-06 04:02:00,58.0,56.9,29.91,NW,323,0.0,0.0,96,0.00,,,0.00,WeatherCatV1.15B25,2013-06-06 09:02:00,
2013-06-06 04:07:00,57.9,56.8,29.91,NW,323,0.0,0.0,96,0.00,,,0.00,WeatherCatV1.15B25,2013-06-06 09:07:00,
2013-06-06 04:12:00,57.9,57.1,29.92,NW,323,0.0,0.0,97,0.00,,,0.00,WeatherCatV1.15B25,2013-06-06 09:12:00,
2013-06-06 04:17:00,57.8,57.0,29.92,NW,323,0.0,0.0,97,0.00,,,0.00,WeatherCatV1.15B25,2013-06-06 09:17:00,
2013-06-06 04:22:00,57.8,57.0,29.92,NW,312,0.0,0.0,97,0.00,,,0.00,WeatherCatV1.15B25,2013-06-06 09:22:00,
2013-06-06 04:27:00,57.8,57.0,29.92,NW,308,0.0,0.0,97,0.00,,,0.00,WeatherCatV1.15B25,2013-06-06 09:27:00,
2013-06-06 04:32:00,57.8,57.0,29.92,NW,306,0.0,0.0,97,0.00,,,0.00,WeatherCatV1.15B25,2013-06-06 09:32:00,
2013-06-06 04:37:00,57.8,57.0,29.91,NNW,333,0.0,2.0,97,0.00,,,0.00,WeatherCatV1.15B25,2013-06-06 09:37:00,
2013-06-06 04:42:00,57.8,57.0,29.91,NNW,333,2.0,2.0,97,0.00,,,0.00,WeatherCatV1.15B25,2013-06-06 09:42:00,
2013-06-06 04:47:00,57.8,57.0,29.90,NNW,340,1.0,3.0,97,0.00,,,0.00,WeatherCatV1.15B25,2013-06-06 09:47:00,
2013-06-06 04:52:00,57.8,57.0,29.90,NNW,340,0.0,1.0,97,0.00,,,0.00,WeatherCatV1.15B25,2013-06-06 09:52:00,
2013-06-06 04:57:00,57.7,56.9,29.90,NNW,340,0.0,1.0,97,0.00,,,0.00,WeatherCatV1.15B25,2013-06-06 09:57:00,
2013-06-06 05:02:00,57.7,56.9,29.90,NNW,339,0.0,1.0,97,0.00,,,0.00,WeatherCatV1.15B25,2013-06-06 10:02:00,
2013-06-06 05:07:00,57.7,56.9,29.91,NNW,339,0.0,0.0,97,0.00,,,0.00,WeatherCatV1.15B25,2013-06-06 10:07:00,
2013-06-06 05:12:00,57.6,56.8,29.91,NNW,339,0.0,0.0,97,0.00,,,0.00,WeatherCatV1.15B25,2013-06-06 10:12:00,
2013-06-06 05:17:00,57.5,56.7,29.91,NNW,340,0.0,0.0,97,0.00,,,0.00,WeatherCatV1.15B25,2013-06-06 10:17:00,
2013-06-06 05:22:00,57.5,56.7,29.91,NW,311,2.0,4.0,97,0.00,,,0.00,WeatherCatV1.15B25,2013-06-06 10:22:00,
2013-06-06 05:27:00,57.4,56.6,29.91,NW,311,0.0,1.0,97,0.00,,,0.00,WeatherCatV1.15B25,2013-06-06 10:27:00,
2013-06-06 05:32:00,57.3,56.5,29.91,NW,311,0.0,0.0,97,0.00,,,0.00,WeatherCatV1.15B25,2013-06-06 10:32:00,
2013-06-06 05:37:00,57.3,56.5,29.90,NW,317,0.0,2.0,97,0.00,,,0.00,WeatherCatV1.15B25,2013-06-06 10:37:00,
2013-06-06 05:42:00,57.3,56.7,29.91,NW,317,1.0,2.0,98,0.00,,,0.00,WeatherCatV1.15B25,2013-06-06 10:42:00,
2013-06-06 05:47:00,57.2,56.6,29.91,North,351,0.0,1.0,98,0.00,,,0.00,WeatherCatV1.15B25,2013-06-06 10:47:00,
2013-06-06 05:52:00,57.2,56.6,29.90,North,351,0.0,1.0,98,0.00,,,0.00,WeatherCatV1.15B25,2013-06-06 10:52:00,
2013-06-06 05:57:00,57.2,56.6,29.90,North,355,0.0,1.0,98,0.00,,,0.00,WeatherCatV1.15B25,2013-06-06 10:57:00,
2013-06-06 06:02:00,57.2,56.6,29.91,North,355,0.0,1.0,98,0.00,,,0.00,WeatherCatV1.15B25,2013-06-06 11:02:00,
2013-06-06 06:07:00,57.2,56.6,29.91,North,355,0.0,1.0,98,0.00,,,0.00,WeatherCatV1.15B25,2013-06-06 11:07:00,
2013-06-06 06:12:00,57.2,56.6,29.91,North,355,0.0,0.0,98,0.00,,,0.00,WeatherCatV1.15B25,2013-06-06 11:12:00,
2013-06-06 06:17:00,57.2,56.6,29.91,North,355,1.0,2.0,98,0.00,,,0.00,WeatherCatV1.15B25,2013-06-06 11:17:00,
2013-06-06 06:22:00,57.2,56.6,29.91,North,355,0.0,1.0,98,0.00,,,0.00,WeatherCatV1.15B25,2013-06-06 11:22:00,
2013-06-06 06:27:00,57.2,56.6,29.92,North,0,2.0,2.0,98,0.00,,,0.00,WeatherCatV1.15B25,2013-06-06 11:27:00,
2013-06-06 06:32:00,57.2,56.6,29.92,North,0,0.0,1.0,98,0.00,,,0.00,WeatherCatV1.15B25,2013-06-06 11:32:00,
2013-06-06 06:37:00,57.3,56.7,29.92,NNW,342,0.0,1.0,98,0.00,,,0.00,WeatherCatV1.15B25,2013-06-06 11:37:00,
2013-06-06 06:42:00,57.3,56.7,29.92,NNW,337,2.0,2.0,98,0.00,,,0.00,WeatherCatV1.15B25,2013-06-06 11:42:00,
2013-06-06 06:47:00,57.4,56.8,29.92,NNW,346,1.0,3.0,98,0.00,,,0.00,WeatherCatV1.15B25,2013-06-06 11:47:00,
2013-06-06 06:52:00,57.5,56.9,29.92,NNE,19,0.0,3.0,98,0.00,,,0.00,WeatherCatV1.15B25,2013-06-06 11:52:00,
2013-06-06 06:57:00,57.7,57.1,29.92,NNW,348,2.0,4.0,98,0.00,,,0.00,WeatherCatV1.15B25,2013-06-06 11:57:00,
2013-06-06 07:02:00,57.8,57.2,29.92,North,351,2.0,3.0,98,0.00,,,0.00,WeatherCatV1.15B25,2013-06-06 12:02:00,
2013-06-06 07:07:00,58.0,57.4,29.92,North,5,0.0,2.0,98,0.00,,,0.00,WeatherCatV1.15B25,2013-06-06 12:07:00,
2013-06-06 07:12:00,58.1,57.5,29.92,North,350,5.0,6.0,98,0.00,,,0.00,WeatherCatV1.15B25,2013-06-06 12:12:00,
2013-06-06 07:17:00,58.3,57.7,29.92,North,355,4.0,6.0,98,0.00,,,0.00,WeatherCatV1.15B25,2013-06-06 12:17:00,
2013-06-06 07:22:00,58.4,57.8,29.92,NE,37,0.0,1.0,98,0.00,,,0.00,WeatherCatV1.15B25,2013-06-06 12:22:00,
2013-06-06 07:27:00,58.6,58.3,29.92,NNE,30,1.0,3.0,99,0.00,,,0.00,WeatherCatV1.15B25,2013-06-06 12:27:00,
2013-06-06 07:32:00,58.7,58.4,29.92,North,9,0.0,2.0,99,0.00,,,0.00,WeatherCatV1.15B25,2013-06-06 12:32:00,
2013-06-06 07:37:00,58.8,58.5,29.92,North,355,3.0,4.0,99,0.00,,,0.00,WeatherCatV1.15B25,2013-06-06 12:37:00,
2013-06-06 07:42:00,58.9,58.6,29.92,North,5,2.0,3.0,99,0.00,,,0.00,WeatherCatV1.15B25,2013-06-06 12:42:00,
2013-06-06 07:47:00,59.1,58.8,29.92,North,9,5.0,5.0,99,0.00,,,0.00,WeatherCatV1.15B25,2013-06-06 12:47:00,
2013-06-06 07:52:00,59.3,59.0,29.92,NW,306,1.0,5.0,99,0.00,,,0.00,WeatherCatV1.15B25,2013-06-06 12:52:00,
2013-06-06 07:57:00,59.5,59.2,29.92,NNW,344,2.0,7.0,99,0.00,,,0.00,WeatherCatV1.15B25,2013-06-06 12:57:00,
2013-06-06 08:02:00,59.8,59.5,29.92,NNW,338,0.0,1.0,99,0.00,,,0.00,WeatherCatV1.15B25,2013-06-06 13:02:00,
2013-06-06 08:07:00,60.2,59.9,29.92,NW,311,2.0,6.0,99,0.00,,,0.00,WeatherCatV1.15B25,2013-06-06 13:07:00,
2013-06-06 08:12:00,60.7,60.4,29.92,North,5,4.0,4.0,99,0.00,,,0.00,WeatherCatV1.15B25,2013-06-06 13:12:00,
2013-06-06 08:17:00,61.0,60.7,29.91,NNW,346,2.0,6.0,99,0.00,,,0.00,WeatherCatV1.15B25,2013-06-06 13:17:00,
2013-06-06 08:22:00,61.3,61.0,29.91,North,355,2.0,7.0,99,0.00,,,0.00,WeatherCatV1.15B25,2013-06-06 13:22:00,
2013-06-06 08:27:00,61.7,61.4,29.91,North,0,2.0,7.0,99,0.00,,,0.00,WeatherCatV1.15B25,2013-06-06 13:27:00,
2013-06-06 08:32:00,62.1,61.8,29.91,North,355,4.0,5.0,99,0.00,,,0.00,WeatherCatV1.15B25,2013-06-06 13:32:00,
2013-06-06 08:37:00,62.5,62.2,29.91,NW,309,2.0,6.0,99,0.00,,,0.00,WeatherCatV1.15B25,2013-06-06 13:37:00,
2013-06-06 08:42:00,62.9,62.6,29.91,North,0,2.0,4.0,99,0.00,,,0.00,WeatherCatV1.15B25,2013-06-06 13:42:00,
2013-06-06 08:47:00,63.4,63.1,29.91,NNW,332,4.0,6.0,99,0.00,,,0.00,WeatherCatV1.15B25,2013-06-06 13:47:00,
2013-06-06 08:52:00,63.8,63.2,29.92,NE,51,3.0,3.0,98,0.00,,,0.00,WeatherCatV1.15B25,2013-06-06 13:52:00,
2013-06-06 08:57:00,64.4,63.5,29.92,NNW,348,2.0,3.0,97,0.00,,,0.00,WeatherCatV1.15B25,2013-06-06 13:57:00,
2013-06-06 09:02:00,65.1,63.9,29.91,North,9,0.0,2.0,96,0.00,,,0.00,WeatherCatV1.15B25,2013-06-06 14:02:00,
2013-06-06 09:07:00,65.9,63.8,29.91,ENE,76,0.0,8.0,93,0.00,,,0.00,WeatherCatV1.15B25,2013-06-06 14:07:00,
2013-06-06 09:12:00,66.7,63.7,29.91,ENE,61,5.0,6.0,90,0.00,,,0.00,WeatherCatV1.15B25,2013-06-06 14:12:00,
2013-06-06 09:17:00,67.3,63.6,29.91,NNE,20,3.0,4.0,88,0.00,,,0.00,WeatherCatV1.15B25,2013-06-06 14:17:00,
2013-06-06 09:22:00,67.8,63.8,29.91,NE,44,0.0,4.0,87,0.00,,,0.00,WeatherCatV1.15B25,2013-06-06 14:22:00,
2013-06-06 09:27:00,68.1,63.1,29.91,North,5,3.0,3.0,84,0.00,,,0.00,WeatherCatV1.15B25,2013-06-06 14:27:00,
2013-06-06 09:32:00,68.0,63.0,29.91,North,355,2.0,6.0,84,0.00,,,0.00,WeatherCatV1.15B25,2013-06-06 14:32:00,
2013-06-06 09:37:00,68.0,63.0,29.90,NE,35,3.0,5.0,84,0.00,,,0.00,WeatherCatV1.15B25,2013-06-06 14:37:00,
2013-06-06 09:42:00,68.2,63.8,29.90,NE,46,5.0,7.0,86,0.00,,,0.00,WeatherCatV1.15B25,2013-06-06 14:42:00,
2013-06-06 09:47:00,68.3,63.3,29.90,ESE,121,0.0,5.0,84,0.00,,,0.00,WeatherCatV1.15B25,2013-06-06 14:47:00,
2013-06-06 09:52:00,68.6,63.6,29.90,ENE,59,2.0,4.0,84,0.00,,,0.00,WeatherCatV1.15B25,2013-06-06 14:52:00,
2013-06-06 09:57:00,68.8,63.1,29.90,NNE,24,2.0,4.0,82,0.00,,,0.00,WeatherCatV1.15B25,2013-06-06 14:57:00,
2013-06-06 10:02:00,68.8,63.8,29.90,North,11,1.0,2.0,84,0.00,,,0.00,WeatherCatV1.15B25,2013-06-06 15:02:00,
2013-06-06 10:07:00,68.7,63.0,29.90,NNW,344,1.0,5.0,82,0.00,,,0.00,WeatherCatV1.15B25,2013-06-06 15:07:00,
2013-06-06 10:12:00,69.0,64.0,29.91,NW,318,2.0,2.0,84,0.00,,,0.00,WeatherCatV1.15B25,2013-06-06 15:12:00,
2013-06-06 10:17:00,69.2,64.2,29.91,NNW,345,2.0,4.0,84,0.00,,,0.00,WeatherCatV1.15B25,2013-06-06 15:17:00,
2013-06-06 10:22:00,69.0,62.9,29.91,NNE,15,2.0,6.0,81,0.00,,,0.00,WeatherCatV1.15B25,2013-06-06 15:22:00,
2013-06-06 10:27:00,68.6,62.5,29.91,North,355,2.0,8.0,81,0.00,,,0.00,WeatherCatV1.15B25,2013-06-06 15:27:00,
2013-06-06 10:32:00,68.0,62.6,29.91,NNW,328,4.0,7.0,83,0.00,,,0.00,WeatherCatV1.15B25,2013-06-06 15:32:00,
2013-06-06 10:37:00,67.6,62.9,29.91,NNW,333,4.0,6.0,85,0.00,,,0.00,WeatherCatV1.15B25,2013-06-06 15:37:00,
2013-06-06 10:42:00,67.3,62.6,29.92,NNW,341,0.0,4.0,85,0.00,,,0.00,WeatherCatV1.15B25,2013-06-06 15:42:00,
2013-06-06 10:47:00,67.3,63.0,29.92,West,281,0.0,5.0,86,0.00,,,0.00,WeatherCatV1.15B25,2013-06-06 15:47:00,
2013-06-06 10:52:00,67.3,62.6,29.92,NNE,32,0.0,4.0,85,0.00,,,0.00,WeatherCatV1.15B25,2013-06-06 15:52:00,
2013-06-06 10:57:00,67.4,62.4,29.92,NE,38,0.0,2.0,84,0.00,,,0.00,WeatherCatV1.15B25,2013-06-06 15:57:00,
2013-06-06 11:02:00,67.5,62.8,29.92,NW,319,1.0,2.0,85,0.00,,,0.00,WeatherCatV1.15B25,2013-06-06 16:02:00,
2013-06-06 11:07:00,67.6,62.6,29.93,NNW,341,2.0,3.0,84,0.00,,,0.00,WeatherCatV1.15B25,2013-06-06 16:07:00,
2013-06-06 11:12:00,67.6,62.6,29.93,WNW,287,0.0,2.0,84,0.00,,,0.00,WeatherCatV1.15B25,2013-06-06 16:12:00,
2013-06-06 11:17:00,67.6,62.6,29.93,North,355,2.0,4.0,84,0.00,,,0.00,WeatherCatV1.15B25,2013-06-06 16:17:00,
2013-06-06 11:22:00,67.4,62.4,29.93,NNW,337,0.0,3.0,84,0.00,,,0.00,WeatherCatV1.15B25,2013-06-06 16:22:00,
2013-06-06 11:27:00,67.4,63.1,29.93,NNW,331,0.0,2.0,86,0.00,,,0.00,WeatherCatV1.15B25,2013-06-06 16:27:00,
2013-06-06 11:32:00,67.3,62.6,29.92,NNW,344,5.0,7.0,85,0.00,,,0.00,WeatherCatV1.15B25,2013-06-06 16:32:00,
2013-06-06 11:37:00,67.2,62.9,29.92,NW,323,0.0,2.0,86,0.00,,,0.00,WeatherCatV1.15B25,2013-06-06 16:37:00,
2013-06-06 11:42:00,67.2,63.2,29.92,NNW,337,0.0,3.0,87,0.00,,,0.00,WeatherCatV1.15B25,2013-06-06 16:42:00,
2013-06-06 11:47:00,67.2,63.2,29.92,ENE,70,2.0,4.0,87,0.00,,,0.00,WeatherCatV1.15B25,2013-06-06 16:47:00,
2013-06-06 11:52:00,67.2,63.2,29.92,ENE,71,0.0,1.0,87,0.00,,,0.00,WeatherCatV1.15B25,2013-06-06 16:52:00,
2013-06-06 11:57:00,67.2,63.5,29.92,ENE,75,0.0,2.0,88,0.00,,,0.00,WeatherCatV1.15B25,2013-06-06 16:57:00,
2013-06-06 12:02:00,67.2,63.2,29.92,NW,323,3.0,5.0,87,0.00,,,0.00,WeatherCatV1.15B25,2013-06-06 17:02:00,
2013-06-06 12:07:00,67.0,63.0,29.92,NNE,26,0.0,2.0,87,0.00,,,0.00,WeatherCatV1.15B25,2013-06-06 17:07:00,
2013-06-06 12:12:00,66.8,63.1,29.92,NNE,21,0.0,2.0,88,0.00,,,0.00,WeatherCatV1.15B25,2013-06-06 17:12:00,
2013-06-06 12:17:00,66.7,63.0,29.92,North,355,0.0,1.0,88,0.00,,,0.00,WeatherCatV1.15B25,2013-06-06 17:17:00,
2013-06-06 12:22:00,66.5,62.8,29.92,NNW,333,2.0,2.0,88,0.00,,,0.00,WeatherCatV1.15B25,2013-06-06 17:22:00,
2013-06-06 12:27:00,66.4,63.1,29.92,NNW,333,1.0,1.0,89,0.00,,,0.00,WeatherCatV1.15B25,2013-06-06 17:27:00,
2013-06-06 12:32:00,66.3,63.0,29.92,NNW,333,0.0,1.0,89,0.00,,,0.00,WeatherCatV1.15B25,2013-06-06 17:32:00,
2013-06-06 12:37:00,66.4,63.7,29.93,WNW,298,1.0,2.0,91,0.00,,,0.00,WeatherCatV1.15B25,2013-06-06 17:37:00,
2013-06-06 12:42:00,66.3,63.3,29.92,North,355,0.0,0.0,90,0.00,,,0.00,WeatherCatV1.15B25,2013-06-06 17:42:00,
2013-06-06 12:47:00,66.3,63.6,29.93,North,355,0.0,0.0,91,0.00,,,0.00,WeatherCatV1.15B25,2013-06-06 17:47:00,
2013-06-06 12:52:00,66.3,63.6,29.93,North,355,0.0,0.0,91,0.00,,,0.00,WeatherCatV1.15B25,2013-06-06 17:52:00,
2013-06-06 12:57:00,66.3,63.6,29.93,North,355,0.0,0.0,91,0.00,,,0.00,WeatherCatV1.15B25,2013-06-06 17:57:00,
2013-06-06 13:02:00,66.3,63.3,29.93,NNW,342,0.0,1.0,90,0.00,,,0.00,WeatherCatV1.15B25,2013-06-06 18:02:00,
2013-06-06 13:07:00,66.3,63.3,29.93,NNW,342,0.0,1.0,90,0.00,,,0.00,WeatherCatV1.15B25,2013-06-06 18:07:00,
2013-06-06 13:12:00,66.4,63.1,29.93,NE,38,0.0,2.0,89,0.00,,,0.00,WeatherCatV1.15B25,2013-06-06 18:12:00,
2013-06-06 13:17:00,66.5,63.2,29.93,NE,38,0.0,1.0,89,0.00,,,0.00,WeatherCatV1.15B25,2013-06-06 18:17:00,
2013-06-06 13:22:00,66.7,63.7,29.93,NNE,27,1.0,1.0,90,0.00,,,0.00,WeatherCatV1.15B25,2013-06-06 18:22:00,
2013-06-06 13:27:00,66.9,63.2,29.93,North,355,0.0,0.0,88,0.00,,,0.00,WeatherCatV1.15B25,2013-06-06 18:27:00,
2013-06-06 13:32:00,67.1,63.4,29.93,North,355,0.0,1.0,88,0.00,,,0.00,WeatherCatV1.15B25,2013-06-06 18:32:00,
2013-06-06 13:37:00,67.2,63.5,29.93,NW,306,0.0,3.0,88,0.00,,,0.00,WeatherCatV1.15B25,2013-06-06 18:37:00,
2013-06-06 13:42:00,67.2,63.5,29.93,NNW,346,2.0,3.0,88,0.00,,,0.00,WeatherCatV1.15B25,2013-06-06 18:42:00,
2013-06-06 13:47:00,67.3,63.9,29.93,NNW,331,2.0,2.0,89,0.00,,,0.00,WeatherCatV1.15B25,2013-06-06 18:47:00,
2013-06-06 13:52:00,67.4,64.0,29.93,NNW,331,1.0,1.0,89,0.00,,,0.00,WeatherCatV1.15B25,2013-06-06 18:52:00,
2013-06-06 13:57:00,67.4,64.4,29.92,NW,306,1.0,2.0,90,0.00,,,0.00,WeatherCatV1.15B25,2013-06-06 18:57:00,
2013-06-06 14:02:00,67.5,64.1,29.92,NNW,348,1.0,5.0,89,0.00,,,0.00,WeatherCatV1.15B25,2013-06-06 19:02:00,
2013-06-06 14:07:00,67.5,64.1,29.92,NNW,336,1.0,4.0,89,0.00,,,0.00,WeatherCatV1.15B25,2013-06-06 19:07:00,
2013-06-06 14:12:00,67.7,64.3,29.92,NNW,332,0.0,2.0,89,0.00,,,0.00,WeatherCatV1.15B25,2013-06-06 19:12:00,
2013-06-06 14:17:00,67.7,64.3,29.92,West,274,0.0,1.0,89,0.00,,,0.00,WeatherCatV1.15B25,2013-06-06 19:17:00,
2013-06-06 14:22:00,67.8,64.1,29.92,NNW,343,6.0,7.0,88,0.00,,,0.00,WeatherCatV1.15B25,2013-06-06 19:22:00,
2013-06-06 14:27:00,67.7,63.4,29.92,NW,319,3.0,7.0,86,0.00,,,0.00,WeatherCatV1.15B25,2013-06-06 19:27:00,
2013-06-06 14:32:00,67.6,63.6,29.91,North,11,2.0,3.0,87,0.00,,,0.00,WeatherCatV1.15B25,2013-06-06 19:32:00,
2013-06-06 14:36:00,67.7,63.7,29.91,NW,320,0.0,2.0,87,0.00,,,0.00,WeatherCatV1.15B25,2013-06-06 19:36:00,
2013-06-06 14:37:00,67.7,64.0,29.91,NW,320,0.0,2.0,88,0.00,,,0.00,WeatherCatV1.15B25,2013-06-06 19:37:00,
2013-06-06 14:41:00,67.8,63.8,29.91,NNW,340,4.0,5.0,87,0.00,,,0.00,WeatherCatV1.15B25,2013-06-06 19:41:00,
2013-06-06 14:46:00,68.2,64.8,29.91,NNW,327,3.0,3.0,89,0.00,,,0.00,WeatherCatV1.15B25,2013-06-06 19:46:00,
2013-06-06 14:51:00,68.5,64.1,29.91,NNW,346,3.0,4.0,86,0.00,,,0.00,WeatherCatV1.15B25,2013-06-06 19:51:00,
2013-06-06 14:56:00,68.7,64.7,29.91,NNW,336,1.0,2.0,87,0.00,,,0.00,WeatherCatV1.15B25,2013-06-06 19:56:00,
2013-06-06 15:01:00,69.4,65.4,29.91,NNW,345,5.0,6.0,87,0.00,,,0.00,WeatherCatV1.15B25,2013-06-06 20:01:00,
2013-06-06 15:06:00,69.8,65.4,29.91,NE,40,2.0,3.0,86,0.00,,,0.00,WeatherCatV1.15B25,2013-06-06 20:06:00,
2013-06-06 15:11:00,70.3,65.6,29.91,NNW,348,2.0,6.0,85,0.00,,,0.00,WeatherCatV1.15B25,2013-06-06 20:11:00,
2013-06-06 15:16:00,70.4,64.3,29.90,NNE,22,0.0,2.0,81,0.00,,,0.00,WeatherCatV1.15B25,2013-06-06 20:16:00,
2013-06-06 15:21:00,70.5,65.1,29.90,NNW,327,3.0,6.0,83,0.00,,,0.00,WeatherCatV1.15B25,2013-06-06 20:21:00,
2013-06-06 15:26:00,70.1,63.3,29.91,NW,316,4.0,6.0,79,0.00,,,0.00,WeatherCatV1.15B25,2013-06-06 20:26:00,
2013-06-06 15:31:00,69.5,62.7,29.91,North,350,1.0,5.0,79,0.00,,,0.00,WeatherCatV1.15B25,2013-06-06 20:31:00,
2013-06-06 15:36:00,69.0,62.6,29.90,NNW,347,4.0,6.0,80,0.00,,,0.00,WeatherCatV1.15B25,2013-06-06 20:36:00,
2013-06-06 15:41:00,68.6,62.9,29.90,NNW,333,0.0,3.0,82,0.00,,,0.00,WeatherCatV1.15B25,2013-06-06 20:41:00,
2013-06-06 15:46:00,68.4,63.4,29.91,NNW,337,0.0,0.0,84,0.00,,,0.00,WeatherCatV1.15B25,2013-06-06 20:46:00,
2013-06-06 15:51:00,68.4,63.7,29.91,NNW,337,1.0,3.0,85,0.00,,,0.00,WeatherCatV1.15B25,2013-06-06 20:51:00,
2013-06-06 15:56:00,68.3,63.6,29.91,WNW,301,0.0,2.0,85,0.00,,,0.00,WeatherCatV1.15B25,2013-06-06 20:56:00,
2013-06-06 16:01:00,68.3,63.3,29.90,North,5,2.0,2.0,84,0.00,,,0.00,WeatherCatV1.15B25,2013-06-06 21:01:00,
2013-06-06 16:06:00,68.3,62.9,29.91,NNW,341,1.0,3.0,83,0.00,,,0.00,WeatherCatV1.15B25,2013-06-06 21:06:00,
2013-06-06 16:11:00,68.5,63.5,29.91,NW,321,1.0,4.0,84,0.00,,,0.00,WeatherCatV1.15B25,2013-06-06 21:11:00,
2013-06-06 16:16:00,68.6,62.5,29.91,NNW,333,4.0,4.0,81,0.00,,,0.00,WeatherCatV1.15B25,2013-06-06 21:16:00,
2013-06-06 16:21:00,68.6,62.2,29.91,NNW,348,6.0,8.0,80,0.00,,,0.00,WeatherCatV1.15B25,2013-06-06 21:21:00,
2013-06-06 16:26:00,68.7,62.6,29.91,NNW,348,7.0,7.0,81,0.00,,,0.00,WeatherCatV1.15B25,2013-06-06 21:26:00,
2013-06-06 16:31:00,68.8,62.0,29.90,NNW,332,3.0,6.0,79,0.00,,,0.00,WeatherCatV1.15B25,2013-06-06 21:31:00,
2013-06-06 16:36:00,69.0,62.9,29.90,North,0,2.0,3.0,81,0.00,,,0.00,WeatherCatV1.15B25,2013-06-06 21:36:00,
2013-06-06 16:41:00,69.2,63.1,29.90,NNW,340,1.0,5.0,81,0.00,,,0.00,WeatherCatV1.15B25,2013-06-06 21:41:00,
2013-06-06 16:46:00,69.3,62.9,29.90,NNW,336,0.0,4.0,80,0.00,,,0.00,WeatherCatV1.15B25,2013-06-06 21:46:00,
2013-06-06 16:51:00,69.4,63.0,29.90,NW,319,1.0,4.0,80,0.00,,,0.00,WeatherCatV1.15B25,2013-06-06 21:51:00,
2013-06-06 16:56:00,69.5,62.3,29.90,NE,47,4.0,6.0,78,0.00,,,0.00,WeatherCatV1.15B25,2013-06-06 21:56:00,
2013-06-06 17:01:00,69.5,62.7,29.89,North,0,3.0,4.0,79,0.00,,,0.00,WeatherCatV1.15B25,2013-06-06 22:01:00,
2013-06-06 17:06:00,69.6,62.4,29.89,NNE,19,0.0,6.0,78,0.00,,,0.00,WeatherCatV1.15B25,2013-06-06 22:06:00,
2013-06-06 17:11:00,69.7,62.5,29.89,NNW,339,2.0,5.0,78,0.00,,,0.00,WeatherCatV1.15B25,2013-06-06 22:11:00,
2013-06-06 17:16:00,69.8,62.6,29.89,NNW,346,4.0,5.0,78,0.00,,,0.00,WeatherCatV1.15B25,2013-06-06 22:16:00,
2013-06-06 17:21:00,69.9,62.7,29.89,NE,48,3.0,6.0,78,0.00,,,0.00,WeatherCatV1.15B25,2013-06-06 22:21:00,
2013-06-06 17:26:00,69.9,62.3,29.89,North,355,1.0,6.0,77,0.00,,,0.00,WeatherCatV1.15B25,2013-06-06 22:26:00,
2013-06-06 17:31:00,69.8,62.3,29.89,NNE,29,0.0,7.0,77,0.00,,,0.00,WeatherCatV1.15B25,2013-06-06 22:31:00,
2013-06-06 17:36:00,69.9,63.1,29.89,North,350,3.0,9.0,79,0.00,,,0.00,WeatherCatV1.15B25,2013-06-06 22:36:00,
2013-06-06 17:41:00,69.8,62.6,29.89,NNW,342,6.0,7.0,78,0.00,,,0.00,WeatherCatV1.15B25,2013-06-06 22:41:00,
2013-06-06 17:46:00,69.6,62.8,29.89,North,0,2.0,7.0,79,0.00,,,0.00,WeatherCatV1.15B25,2013-06-06 22:46:00,
2013-06-06 17:51:00,69.5,63.0,29.88,NNW,345,2.0,5.0,80,0.00,,,0.00,WeatherCatV1.15B25,2013-06-06 22:51:00,
2013-06-06 17:56:00,69.4,62.2,29.88,North,9,5.0,6.0,78,0.00,,,0.00,WeatherCatV1.15B25,2013-06-06 22:56:00,
2013-06-06 18:01:00,69.2,61.7,29.88,North,11,1.0,2.0,77,0.00,,,0.00,WeatherCatV1.15B25,2013-06-06 23:01:00,
2013-06-06 18:06:00,69.2,62.0,29.88,North,355,3.0,8.0,78,0.00,,,0.00,WeatherCatV1.15B25,2013-06-06 23:06:00,
2013-06-06 18:11:00,69.1,62.7,29.88,NNW,345,3.0,3.0,80,0.00,,,0.00,WeatherCatV1.15B25,2013-06-06 23:11:00,
2013-06-06 18:16:00,69.1,61.9,29.88,NNW,333,2.0,4.0,78,0.00,,,0.00,WeatherCatV1.15B25,2013-06-06 23:16:00,
2013-06-06 18:21:00,69.0,61.5,29.88,NE,36,5.0,7.0,77,0.00,,,0.00,WeatherCatV1.15B25,2013-06-06 23:21:00,
2013-06-06 18:26:00,68.8,60.9,29.88,NNW,340,7.0,8.0,76,0.00,,,0.00,WeatherCatV1.15B25,2013-06-06 23:26:00,
2013-06-06 18:31:00,68.6,60.7,29.88,North,351,6.0,8.0,76,0.00,,,0.00,WeatherCatV1.15B25,2013-06-06 23:31:00,
2013-06-06 18:36:00,68.5,61.0,29.88,North,350,5.0,6.0,77,0.00,,,0.00,WeatherCatV1.15B25,2013-06-06 23:36:00,
2013-06-06 18:41:00,68.4,60.9,29.88,North,355,6.0,7.0,77,0.00,,,0.00,WeatherCatV1.15B25,2013-06-06 23:41:00,
2013-06-06 18:46:00,68.2,60.7,29.88,NNW,327,3.0,5.0,77,0.00,,,0.00,WeatherCatV1.15B25,2013-06-06 23:46:00,
2013-06-06 18:51:00,68.1,60.6,29.88,NNE,24,4.0,4.0,77,0.00,,,0.00,WeatherCatV1.15B25,2013-06-06 23:51:00,
2013-06-06 18:56:00,68.1,61.0,29.88,NNW,330,4.0,7.0,78,0.00,,,0.00,WeatherCatV1.15B25,2013-06-06 23:56:00,
2013-06-06 19:01:00,67.9,60.8,29.88,NNW,328,2.0,5.0,78,0.00,,,0.00,WeatherCatV1.15B25,2013-06-07 00:01:00,
2013-06-06 19:06:00,67.8,60.3,29.88,North,9,5.0,5.0,77,0.00,,,0.00,WeatherCatV1.15B25,2013-06-07 00:06:00,
2013-06-06 19:11:00,67.7,60.6,29.88,North,0,2.0,5.0,78,0.00,,,0.00,WeatherCatV1.15B25,2013-06-07 00:11:00,
2013-06-06 19:16:00,67.6,60.5,29.89,NNW,335,2.0,3.0,78,0.00,,,0.00,WeatherCatV1.15B25,2013-06-07 00:16:00,
2013-06-06 19:21:00,67.5,60.4,29.89,NNW,345,2.0,4.0,78,0.00,,,0.00,WeatherCatV1.15B25,2013-06-07 00:21:00,
2013-06-06 19:26:00,67.4,60.7,29.89,North,0,2.0,4.0,79,0.00,,,0.00,WeatherCatV1.15B25,2013-06-07 00:26:00,
2013-06-06 19:31:00,67.2,60.5,29.89,North,350,1.0,3.0,79,0.00,,,0.00,WeatherCatV1.15B25,2013-06-07 00:31:00,
2013-06-06 19:36:00,67.1,60.7,29.89,North,350,0.0,1.0,80,0.00,,,0.00,WeatherCatV1.15B25,2013-06-07 00:36:00,
2013-06-06 19:41:00,67.0,61.0,29.89,North,350,0.0,1.0,81,0.00,,,0.00,WeatherCatV1.15B25,2013-06-07 00:41:00,
2013-06-06 19:46:00,66.9,60.9,29.89,North,350,0.0,0.0,81,0.00,,,0.00,WeatherCatV1.15B25,2013-06-07 00:46:00,
2013-06-06 19:51:00,66.7,61.0,29.89,North,350,0.0,0.0,82,0.00,,,0.00,WeatherCatV1.15B25,2013-06-07 00:51:00,
2013-06-06 19:56:00,66.6,60.9,29.89,NNE,30,0.0,0.0,82,0.00,,,0.00,WeatherCatV1.15B25,2013-06-07 00:56:00,
2013-06-06 20:01:00,66.3,61.0,29.90,NNE,30,0.0,0.0,83,0.00,,,0.00,WeatherCatV1.15B25,2013-06-07 01:01:00,
2013-06-06 20:06:00,66.1,60.8,29.90,NNE,30,0.0,0.0,83,0.00,,,0.00,WeatherCatV1.15B25,2013-06-07 01:06:00,
2013-06-06 20:11:00,65.7,60.4,29.90,NNE,30,0.0,0.0,83,0.00,,,0.00,WeatherCatV1.15B25,2013-06-07 01:11:00,
2013-06-06 20:16:00,65.3,60.3,29.90,NNE,30,0.0,0.0,84,0.00,,,0.00,WeatherCatV1.15B25,2013-06-07 01:16:00,
2013-06-06 20:21:00,64.8,59.8,29.90,NNE,30,0.0,0.0,84,0.00,,,0.00,WeatherCatV1.15B25,2013-06-07 01:21:00,
2013-06-06 20:26:00,64.6,59.7,29.90,NNE,30,0.0,0.0,84,0.00,,,0.00,WeatherCatV1.15B25,2013-06-07 01:26:00,
2013-06-06 20:31:00,64.3,59.4,29.90,NNE,30,0.0,0.0,84,0.00,,,0.00,WeatherCatV1.15B25,2013-06-07 01:31:00,
2013-06-06 20:36:00,64.0,59.4,29.90,NNE,30,0.0,0.0,85,0.00,,,0.00,WeatherCatV1.15B25,2013-06-07 01:36:00,
2013-06-06 20:41:00,63.7,59.1,29.90,NNE,30,0.0,0.0,85,0.00,,,0.00,WeatherCatV1.15B25,2013-06-07 01:41:00,
2013-06-06 20:46:00,63.3,59.0,29.90,NNE,30,0.0,0.0,86,0.00,,,0.00,WeatherCatV1.15B25,2013-06-07 01:46:00,
2013-06-06 20:51:00,62.8,58.5,29.90,NNE,30,0.0,0.0,86,0.00,,,0.00,WeatherCatV1.15B25,2013-06-07 01:51:00,
2013-06-06 20:56:00,62.4,58.2,29.90,NNE,30,0.0,0.0,86,0.00,,,0.00,WeatherCatV1.15B25,2013-06-07 01:56:00,
2013-06-06 21:01:00,62.0,58.1,29.90,NNE,30,0.0,0.0,87,0.00,,,0.00,WeatherCatV1.15B25,2013-06-07 02:01:00,
2013-06-06 21:06:00,61.5,57.6,29.90,NNE,30,0.0,0.0,87,0.00,,,0.00,WeatherCatV1.15B25,2013-06-07 02:06:00,
2013-06-06 21:11:00,61.2,57.6,29.90,NNE,30,0.0,0.0,88,0.00,,,0.00,WeatherCatV1.15B25,2013-06-07 02:11:00,
2013-06-06 21:16:00,60.9,57.3,29.91,NNE,30,0.0,0.0,88,0.00,,,0.00,WeatherCatV1.15B25,2013-06-07 02:16:00,
2013-06-06 21:21:00,60.7,57.1,29.91,NNE,30,0.0,0.0,88,0.00,,,0.00,WeatherCatV1.15B25,2013-06-07 02:21:00,
2013-06-06 21:26:00,60.4,56.8,29.91,NNE,30,0.0,0.0,88,0.00,,,0.00,WeatherCatV1.15B25,2013-06-07 02:26:00,
2013-06-06 21:31:00,60.1,56.8,29.91,NNE,30,0.0,0.0,89,0.00,,,0.00,WeatherCatV1.15B25,2013-06-07 02:31:00,
2013-06-06 21:36:00,59.8,56.5,29.92,NNE,30,0.0,0.0,89,0.00,,,0.00,WeatherCatV1.15B25,2013-06-07 02:36:00,
2013-06-06 21:41:00,59.5,56.3,29.92,NNE,30,0.0,0.0,89,0.00,,,0.00,WeatherCatV1.15B25,2013-06-07 02:41:00,
2013-06-06 21:46:00,59.4,56.5,29.92,NNE,30,0.0,0.0,90,0.00,,,0.00,WeatherCatV1.15B25,2013-06-07 02:46:00,
2013-06-06 21:51:00,59.2,56.3,29.92,NNE,30,0.0,0.0,90,0.00,,,0.00,WeatherCatV1.15B25,2013-06-07 02:51:00,
2013-06-06 21:56:00,59.1,56.5,29.92,NNE,30,0.0,0.0,91,0.00,,,0.00,WeatherCatV1.15B25,2013-06-07 02:56:00,
2013-06-06 22:01:00,59.0,56.4,29.92,NNE,30,0.0,0.0,91,0.00,,,0.00,WeatherCatV1.15B25,2013-06-07 03:01:00,
2013-06-06 22:06:00,58.8,56.2,29.93,NNE,30,0.0,0.0,91,0.00,,,0.00,WeatherCatV1.15B25,2013-06-07 03:06:00,
2013-06-06 22:11:00,58.6,56.3,29.93,NNE,30,0.0,0.0,92,0.00,,,0.00,WeatherCatV1.15B25,2013-06-07 03:11:00,
2013-06-06 22:16:00,58.5,56.5,29.93,NNE,30,0.0,0.0,93,0.00,,,0.00,WeatherCatV1.15B25,2013-06-07 03:16:00,
2013-06-06 22:21:00,58.3,56.0,29.93,NNE,30,0.0,0.0,92,0.00,,,0.00,WeatherCatV1.15B25,2013-06-07 03:21:00,
2013-06-06 22:26:00,58.1,55.8,29.93,NNE,30,0.0,0.0,92,0.00,,,0.00,WeatherCatV1.15B25,2013-06-07 03:26:00,
2013-06-06 22:31:00,58.0,55.7,29.93,NNE,30,0.0,0.0,92,0.00,,,0.00,WeatherCatV1.15B25,2013-06-07 03:31:00,
2013-06-06 22:36:00,57.9,55.9,29.93,NNE,30,0.0,0.0,93,0.00,,,0.00,WeatherCatV1.15B25,2013-06-07 03:36:00,
2013-06-06 22:41:00,57.7,55.7,29.93,NNE,30,0.0,0.0,93,0.00,,,0.00,WeatherCatV1.15B25,2013-06-07 03:41:00,
2013-06-06 22:46:00,57.6,55.6,29.93,NNE,30,0.0,0.0,93,0.00,,,0.00,WeatherCatV1.15B25,2013-06-07 03:46:00,
2013-06-06 22:51:00,57.4,55.4,29.93,NNE,30,0.0,0.0,93,0.00,,,0.00,WeatherCatV1.15B25,2013-06-07 03:51:00,
2013-06-06 22:56:00,57.3,55.3,29.93,NNE,30,0.0,0.0,93,0.00,,,0.00,WeatherCatV1.15B25,2013-06-07 03:56:00,
2013-06-06 23:01:00,57.1,55.1,29.93,NNE,30,0.0,0.0,93,0.00,,,0.00,WeatherCatV1.15B25,2013-06-07 04:01:00,
2013-06-06 23:06:00,56.9,54.9,29.93,NNE,30,0.0,0.0,93,0.00,,,0.00,WeatherCatV1.15B25,2013-06-07 04:06:00,
2013-06-06 23:11:00,56.8,54.8,29.93,NNE,30,0.0,0.0,93,0.00,,,0.00,WeatherCatV1.15B25,2013-06-07 04:11:00,
2013-06-06 23:16:00,56.6,54.9,29.93,NNE,30,0.0,0.0,94,0.00,,,0.00,WeatherCatV1.15B25,2013-06-07 04:16:00,
2013-06-06 23:21:00,56.5,54.5,29.93,NNE,30,0.0,0.0,93,0.00,,,0.00,WeatherCatV1.15B25,2013-06-07 04:21:00,
2013-06-06 23:26:00,56.3,54.3,29.93,NNE,30,0.0,0.0,93,0.00,,,0.00,WeatherCatV1.15B25,2013-06-07 04:26:00,
2013-06-06 23:31:00,56.1,54.1,29.93,NNE,30,0.0,0.0,93,0.00,,,0.00,WeatherCatV1.15B25,2013-06-07 04:31:00,
2013-06-06 23:36:00,56.0,54.3,29.93,NNE,30,0.0,0.0,94,0.00,,,0.00,WeatherCatV1.15B25,2013-06-07 04:36:00,
2013-06-06 23:41:00,55.8,53.8,29.93,NNE,30,0.0,0.0,93,0.00,,,0.00,WeatherCatV1.15B25,2013-06-07 04:41:00,
2013-06-06 23:46:00,55.6,53.6,29.93,NNE,30,0.0,0.0,93,0.00,,,0.00,WeatherCatV1.15B25,2013-06-07 04:46:00,
2013-06-06 23:51:00,55.4,53.7,29.93,NNE,30,0.0,0.0,94,0.00,,,0.00,WeatherCatV1.15B25,2013-06-07 04:51:00,
2013-06-06 23:56:00,55.3,53.6,29.94,NNE,30,0.0,0.0,94,0.00,,,0.00,WeatherCatV1.15B25,2013-06-07 04:56:00,